Boynton Beach, FL (33437)

11:07 AM EDT on October 01, 2014 (GMT -0400)
Valencia Pointe | Change Station
CLOSE
Current Station
Personal Weather Station
Location: Boynton Beach, FL
Elevation: 33 ft
Nearby Weather Stations

Elev 33 ft 26.51 °N, 80.16 °W | Updated 1 second ago

Scattered Clouds
Scattered Clouds
86.2 °F
Feels Like 100 °F
N
4.0
Wind Variable Wind from SW

Today
High -- | Low -- °F
--% Chance of Precip.
Yesterday
High -- | Low -- °F
Precip. -- in
7:13 AM 7:07 PM
Waxing Crescent, 48% visible
Pressure 29.87 in
Visibility 10.0 miles
Clouds Scattered Clouds 1600 ft
Scattered Clouds 2300 ft
Scattered Clouds 3500 ft
Heat Index 100 °F
Dew Point 79 °F
Humidity 80%
Rainfall 0.00 in
Snow Depth Not available.
UV 6 out of 12
Pollen 4.60 out of 12
Ozone Good
PM2.5 Good
Flu Activity Not available.
METAR KPBI 301453Z 25011KT 10SM SCT016 SCT023TCU SCT035 30/24 A2987 RMK AO2 SLP113 TCU ALQDS T03000244 51005

More Conditions Fewer Conditions

Pressure 29.87 in
Visibility 10.0 miles
Clouds Scattered Clouds 1600 ft
Scattered Clouds 2300 ft
Scattered Clouds 3500 ft
Heat Index 100 °F
Dew Point 79 °F
Humidity 80%
Rainfall 0.00 in
Snow Depth Not available.
UV 6 out of 12
Pollen 4.60 out of 12
Ozone Good
PM2.5 Good
Flu Activity Not available.
METAR KPBI 301453Z 25011KT 10SM SCT016 SCT023TCU SCT035 30/24 A2987 RMK AO2 SLP113 TCU ALQDS T03000244 51005

More Conditions Fewer Conditions

Nowcast | as of 8:09 am EDT on October 1, 2014

Southwesterly flow continues to affect South Florida today. Showers and a few rumbles of thunder are moving from southwest to northeast and will be reaching Naples between 0815 and 0820 am EDT. Showers and thunderstorms are forecast to develop along the East Coast Metro areas this afternoon and evening.

×

10-Day Weather Forecast

Almanac

Astronomy

Oct. 01, 2014 Rise Set
Actual Time 7:13 AM EDT 7:07 PM EDT
Civil Twilight 6:50 AM EDT 7:30 PM EDT
Nautical Twilight 6:23 AM EDT 7:56 PM EDT
Astronomical Twilight 5:56 AM EDT 8:23 PM EDT
Moon 1:49 PM EDT 12:01 AM EDT
Length of Visible Light 12h 40m
Length of Day
11h 53m
Tomorrow will be 1m 33s shorter.
Waxing Crescent, 48% of the Moon is Illuminated
Today
Waxing Crescent
Oct 1
First Quarter
Oct 8
Full
Oct 15
Last Quarter
Oct 23
New

Today's Extremes

State Highs State Lows

Community

WunderPhotos

Upload Photos

1,757,962 photos uploaded!

Nearby

Air Quality

  Air Quality AQ Index Pollutant
Yesterday Good
PM2.5
Yesterday Good
OZONE
Current Good
PM2.5
Current Good
OZONE
Wednesday Good
OZONE
Wednesday Good
PM2.5
Thursday Good
OZONE
Thursday Good
PM2.5

Snow Depth

Station Depth Elevation
No new snow has been reported.

Earthquake Activity

City Distance Mag. Time & Date
No recent earthquake activity has been reported nearby.
Minimum magnitude displayed is 2.5.

Coastal Water Temperatures

Place Temperature
Lake Worth, FL 84.9 °F
Virginia Key, FL 84.9 °F

Nearby Weather Stations